<?xml version="1.0" encoding="UTF-8" standalone="no" ?>
<gpx xmlns="http://www.topografix.com/GPX/1/1" xmlns:xsi="http://www.w3.org/2001/XMLSchema-instance" xsi:schemaLocation="http://www.topografix.com/GPX/1/1 http://www.topografix.com/GPX/1/1/gpx.xsd" version="1.1" creator="VisuGPX - https://www.visugpx.com">
  <metadata>
    <name>Boucle Izoard</name>
    <desc><![CDATA[Proposition de Muriel du CDTE 05]]></desc>
  </metadata>
  <trk>
    <name><![CDATA[8272432-Queyras-3J-Tour Izoard]]></name>
    <trkseg>
      <trkpt lat="44.87112" lon="6.62994">
        <ele>1293</ele>
        <time>2018-01-19T18:52:17Z</time>
      </trkpt>
      <trkpt lat="44.87161" lon="6.63121">
        <ele>1291</ele>
        <time>2018-01-19T18:53:17Z</time>
      </trkpt>
      <trkpt lat="44.87197" lon="6.63147">
        <ele>1288</ele>
        <time>2018-01-19T18:54:17Z</time>
      </trkpt>
      <trkpt lat="44.87183" lon="6.63206">
        <ele>1295</ele>
        <time>2018-01-19T18:55:17Z</time>
      </trkpt>
      <trkpt lat="44.87206" lon="6.63269">
        <ele>1298</ele>
        <time>2018-01-19T18:56:17Z</time>
      </trkpt>
      <trkpt lat="44.87151" lon="6.63305">
        <ele>1312</ele>
        <time>2018-01-19T18:57:17Z</time>
      </trkpt>
      <trkpt lat="44.87037" lon="6.63651">
        <ele>1348</ele>
        <time>2018-01-19T18:58:17Z</time>
      </trkpt>
      <trkpt lat="44.87009" lon="6.63683">
        <ele>1361</ele>
        <time>2018-01-19T18:59:17Z</time>
      </trkpt>
      <trkpt lat="44.86992" lon="6.63574">
        <ele>1373</ele>
        <time>2018-01-19T19:00:17Z</time>
      </trkpt>
      <trkpt lat="44.86954" lon="6.63548">
        <ele>1392</ele>
        <time>2018-01-19T19:01:17Z</time>
      </trkpt>
      <trkpt lat="44.86921" lon="6.63657">
        <ele>1412</ele>
        <time>2018-01-19T19:02:17Z</time>
      </trkpt>
      <trkpt lat="44.86896" lon="6.6357">
        <ele>1420</ele>
        <time>2018-01-19T19:03:17Z</time>
      </trkpt>
      <trkpt lat="44.86831" lon="6.6359">
        <ele>1449</ele>
        <time>2018-01-19T19:04:17Z</time>
      </trkpt>
      <trkpt lat="44.86858" lon="6.63631">
        <ele>1442</ele>
        <time>2018-01-19T19:05:17Z</time>
      </trkpt>
      <trkpt lat="44.86715" lon="6.6369">
        <ele>1496</ele>
        <time>2018-01-19T19:06:17Z</time>
      </trkpt>
      <trkpt lat="44.86656" lon="6.63663">
        <ele>1512</ele>
        <time>2018-01-19T19:07:17Z</time>
      </trkpt>
      <trkpt lat="44.86634" lon="6.63866">
        <ele>1540</ele>
        <time>2018-01-19T19:08:17Z</time>
      </trkpt>
      <trkpt lat="44.86601" lon="6.63849">
        <ele>1551</ele>
        <time>2018-01-19T19:09:17Z</time>
      </trkpt>
      <trkpt lat="44.86575" lon="6.63895">
        <ele>1564</ele>
        <time>2018-01-19T19:10:17Z</time>
      </trkpt>
      <trkpt lat="44.86588" lon="6.63977">
        <ele>1562</ele>
        <time>2018-01-19T19:11:17Z</time>
      </trkpt>
      <trkpt lat="44.86146" lon="6.64699">
        <ele>1612</ele>
        <time>2018-01-19T19:12:17Z</time>
      </trkpt>
      <trkpt lat="44.85246" lon="6.65508">
        <ele>1652</ele>
        <time>2018-01-19T19:13:17Z</time>
      </trkpt>
      <trkpt lat="44.84373" lon="6.6601">
        <ele>1727</ele>
        <time>2018-01-19T19:14:17Z</time>
      </trkpt>
      <trkpt lat="44.84327" lon="6.66027">
        <ele>1728</ele>
        <time>2018-01-19T19:15:17Z</time>
      </trkpt>
      <trkpt lat="44.8426" lon="6.66001">
        <ele>1732</ele>
        <time>2018-01-19T19:16:17Z</time>
      </trkpt>
      <trkpt lat="44.84166" lon="6.66018">
        <ele>1739</ele>
        <time>2018-01-19T19:17:17Z</time>
      </trkpt>
      <trkpt lat="44.84183" lon="6.66072">
        <ele>1738</ele>
        <time>2018-01-19T19:18:17Z</time>
      </trkpt>
      <trkpt lat="44.84059" lon="6.66457">
        <ele>1810</ele>
        <time>2018-01-19T19:19:17Z</time>
      </trkpt>
      <trkpt lat="44.83736" lon="6.66964">
        <ele>1916</ele>
        <time>2018-01-19T19:20:17Z</time>
      </trkpt>
      <trkpt lat="44.83332" lon="6.67216">
        <ele>2002</ele>
        <time>2018-01-19T19:21:17Z</time>
      </trkpt>
      <trkpt lat="44.83022" lon="6.67427">
        <ele>2053</ele>
        <time>2018-01-19T19:22:17Z</time>
      </trkpt>
      <trkpt lat="44.82755" lon="6.67618">
        <ele>2106</ele>
        <time>2018-01-19T19:23:17Z</time>
      </trkpt>
      <trkpt lat="44.82583" lon="6.67813">
        <ele>2135</ele>
        <time>2018-01-19T19:24:17Z</time>
      </trkpt>
      <trkpt lat="44.82541" lon="6.67851">
        <ele>2143</ele>
        <time>2018-01-19T19:25:17Z</time>
      </trkpt>
      <trkpt lat="44.82508" lon="6.67819">
        <ele>2144</ele>
        <time>2018-01-19T19:26:17Z</time>
      </trkpt>
      <trkpt lat="44.82483" lon="6.67864">
        <ele>2151</ele>
        <time>2018-01-19T19:27:17Z</time>
      </trkpt>
      <trkpt lat="44.82448" lon="6.67846">
        <ele>2153</ele>
        <time>2018-01-19T19:28:17Z</time>
      </trkpt>
      <trkpt lat="44.82421" lon="6.67875">
        <ele>2160</ele>
        <time>2018-01-19T19:29:17Z</time>
      </trkpt>
      <trkpt lat="44.82395" lon="6.67852">
        <ele>2160</ele>
        <time>2018-01-19T19:30:17Z</time>
      </trkpt>
      <trkpt lat="44.82388" lon="6.67949">
        <ele>2173</ele>
        <time>2018-01-19T19:31:17Z</time>
      </trkpt>
      <trkpt lat="44.81901" lon="6.68115">
        <ele>2240</ele>
        <time>2018-01-19T19:32:17Z</time>
      </trkpt>
      <trkpt lat="44.81692" lon="6.68411">
        <ele>2309</ele>
        <time>2018-01-19T19:33:17Z</time>
      </trkpt>
      <trkpt lat="44.81553" lon="6.68758">
        <ele>2388</ele>
        <time>2018-01-19T19:34:17Z</time>
      </trkpt>
      <trkpt lat="44.81236" lon="6.68784">
        <ele>2475</ele>
        <time>2018-01-19T19:35:17Z</time>
      </trkpt>
      <trkpt lat="44.80385" lon="6.69636">
        <ele>2147</ele>
        <time>2018-01-19T19:36:17Z</time>
      </trkpt>
      <trkpt lat="44.80422" lon="6.69776">
        <ele>2129</ele>
        <time>2018-01-19T19:37:17Z</time>
      </trkpt>
      <trkpt lat="44.80609" lon="6.69915">
        <ele>2132</ele>
        <time>2018-01-19T19:38:17Z</time>
      </trkpt>
      <trkpt lat="44.80634" lon="6.70037">
        <ele>2100</ele>
        <time>2018-01-19T19:39:17Z</time>
      </trkpt>
      <trkpt lat="44.80607" lon="6.69981">
        <ele>2099</ele>
        <time>2018-01-19T19:40:17Z</time>
      </trkpt>
      <trkpt lat="44.80615" lon="6.7011">
        <ele>2079</ele>
        <time>2018-01-19T19:41:17Z</time>
      </trkpt>
      <trkpt lat="44.80576" lon="6.6999">
        <ele>2079</ele>
        <time>2018-01-19T19:42:17Z</time>
      </trkpt>
      <trkpt lat="44.80594" lon="6.70212">
        <ele>2055</ele>
        <time>2018-01-19T19:43:17Z</time>
      </trkpt>
      <trkpt lat="44.80666" lon="6.70351">
        <ele>2043</ele>
        <time>2018-01-19T19:44:17Z</time>
      </trkpt>
      <trkpt lat="44.8054" lon="6.70674">
        <ele>1967</ele>
        <time>2018-01-19T19:45:17Z</time>
      </trkpt>
      <trkpt lat="44.80399" lon="6.70873">
        <ele>1938</ele>
        <time>2018-01-19T19:46:17Z</time>
      </trkpt>
      <trkpt lat="44.79967" lon="6.71566">
        <ele>1845</ele>
        <time>2018-01-19T19:47:17Z</time>
      </trkpt>
      <trkpt lat="44.79832" lon="6.72014">
        <ele>1827</ele>
        <time>2018-01-19T19:48:17Z</time>
      </trkpt>
      <trkpt lat="44.79725" lon="6.72149">
        <ele>1821</ele>
        <time>2018-01-19T19:49:17Z</time>
      </trkpt>
      <trkpt lat="44.79683" lon="6.72288">
        <ele>1815</ele>
        <time>2018-01-19T19:50:17Z</time>
      </trkpt>
      <trkpt lat="44.79564" lon="6.72408">
        <ele>1813</ele>
        <time>2018-01-19T19:51:17Z</time>
      </trkpt>
      <trkpt lat="44.79525" lon="6.7258">
        <ele>1816</ele>
        <time>2018-01-19T19:52:17Z</time>
      </trkpt>
      <trkpt lat="44.79611" lon="6.72847">
        <ele>1825</ele>
        <time>2018-01-19T19:53:17Z</time>
      </trkpt>
      <trkpt lat="44.7963" lon="6.72805">
        <ele>1829</ele>
        <time>2018-01-19T19:54:17Z</time>
      </trkpt>
      <trkpt lat="44.79682" lon="6.72832">
        <ele>1840</ele>
        <time>2018-01-19T19:55:17Z</time>
      </trkpt>
      <trkpt lat="44.79515" lon="6.73212">
        <ele>1814</ele>
        <time>2018-01-19T19:56:17Z</time>
      </trkpt>
      <trkpt lat="44.79559" lon="6.73383">
        <ele>1835</ele>
        <time>2018-01-19T19:57:17Z</time>
      </trkpt>
      <trkpt lat="44.79387" lon="6.73426">
        <ele>1814</ele>
        <time>2018-01-19T19:58:17Z</time>
      </trkpt>
      <trkpt lat="44.7938" lon="6.73513">
        <ele>1822</ele>
        <time>2018-01-19T19:59:17Z</time>
      </trkpt>
      <trkpt lat="44.79309" lon="6.73542">
        <ele>1808</ele>
        <time>2018-01-19T20:00:17Z</time>
      </trkpt>
      <trkpt lat="44.79271" lon="6.73299">
        <ele>1778</ele>
        <time>2018-01-19T20:01:17Z</time>
      </trkpt>
      <trkpt lat="44.78646" lon="6.73489">
        <ele>1728</ele>
        <time>2018-01-19T20:02:17Z</time>
      </trkpt>
      <trkpt lat="44.78175" lon="6.73702">
        <ele>1702</ele>
        <time>2018-01-19T20:03:17Z</time>
      </trkpt>
      <trkpt lat="44.78121" lon="6.73607">
        <ele>1689</ele>
        <time>2018-01-19T20:04:17Z</time>
      </trkpt>
      <trkpt lat="44.78026" lon="6.73652">
        <ele>1682</ele>
        <time>2018-01-19T20:05:17Z</time>
      </trkpt>
      <trkpt lat="44.77944" lon="6.73828">
        <ele>1689</ele>
        <time>2018-01-19T20:06:17Z</time>
      </trkpt>
      <trkpt lat="44.77346" lon="6.73642">
        <ele>1604</ele>
        <time>2018-01-19T20:07:17Z</time>
      </trkpt>
      <trkpt lat="44.76936" lon="6.73702">
        <ele>1572</ele>
        <time>2018-01-19T20:08:17Z</time>
      </trkpt>
      <trkpt lat="44.7662" lon="6.7394">
        <ele>1551</ele>
        <time>2018-01-19T20:09:17Z</time>
      </trkpt>
      <trkpt lat="44.76403" lon="6.745">
        <ele>1598</ele>
        <time>2018-01-19T20:10:17Z</time>
      </trkpt>
      <trkpt lat="44.76591" lon="6.74293">
        <ele>1626</ele>
        <time>2018-01-19T20:11:17Z</time>
      </trkpt>
      <trkpt lat="44.7639" lon="6.74847">
        <ele>1686</ele>
        <time>2018-01-19T20:12:17Z</time>
      </trkpt>
      <trkpt lat="44.76265" lon="6.74977">
        <ele>1680</ele>
        <time>2018-01-19T20:13:17Z</time>
      </trkpt>
      <trkpt lat="44.76396" lon="6.75631">
        <ele>1801</ele>
        <time>2018-01-19T20:14:17Z</time>
      </trkpt>
      <trkpt lat="44.76091" lon="6.7655">
        <ele>1854</ele>
        <time>2018-01-19T20:15:17Z</time>
      </trkpt>
      <trkpt lat="44.76722" lon="6.76815">
        <ele>1795</ele>
        <time>2018-01-19T20:16:17Z</time>
      </trkpt>
      <trkpt lat="44.77175" lon="6.76474">
        <ele>1815</ele>
        <time>2018-01-19T20:17:17Z</time>
      </trkpt>
      <trkpt lat="44.7745" lon="6.76581">
        <ele>1801</ele>
        <time>2018-01-19T20:18:17Z</time>
      </trkpt>
      <trkpt lat="44.77591" lon="6.76489">
        <ele>1820</ele>
        <time>2018-01-19T20:19:17Z</time>
      </trkpt>
      <trkpt lat="44.77671" lon="6.76637">
        <ele>1817</ele>
        <time>2018-01-19T20:20:17Z</time>
      </trkpt>
      <trkpt lat="44.776" lon="6.76637">
        <ele>1806</ele>
        <time>2018-01-19T20:21:17Z</time>
      </trkpt>
      <trkpt lat="44.77584" lon="6.76745">
        <ele>1816</ele>
        <time>2018-01-19T20:22:17Z</time>
      </trkpt>
      <trkpt lat="44.77622" lon="6.76709">
        <ele>1819</ele>
        <time>2018-01-19T20:23:17Z</time>
      </trkpt>
      <trkpt lat="44.77614" lon="6.76766">
        <ele>1827</ele>
        <time>2018-01-19T20:24:17Z</time>
      </trkpt>
      <trkpt lat="44.77576" lon="6.7681">
        <ele>1828</ele>
        <time>2018-01-19T20:25:17Z</time>
      </trkpt>
      <trkpt lat="44.77546" lon="6.76911">
        <ele>1841</ele>
        <time>2018-01-19T20:26:17Z</time>
      </trkpt>
      <trkpt lat="44.77606" lon="6.76944">
        <ele>1859</ele>
        <time>2018-01-19T20:27:17Z</time>
      </trkpt>
      <trkpt lat="44.7775" lon="6.76982">
        <ele>1905</ele>
        <time>2018-01-19T20:28:17Z</time>
      </trkpt>
      <trkpt lat="44.77682" lon="6.77067">
        <ele>1918</ele>
        <time>2018-01-19T20:29:17Z</time>
      </trkpt>
      <trkpt lat="44.77754" lon="6.77104">
        <ele>1952</ele>
        <time>2018-01-19T20:30:17Z</time>
      </trkpt>
      <trkpt lat="44.77726" lon="6.77167">
        <ele>1967</ele>
        <time>2018-01-19T20:31:17Z</time>
      </trkpt>
      <trkpt lat="44.77796" lon="6.77153">
        <ele>1983</ele>
        <time>2018-01-19T20:32:17Z</time>
      </trkpt>
      <trkpt lat="44.77722" lon="6.77231">
        <ele>1990</ele>
        <time>2018-01-19T20:33:17Z</time>
      </trkpt>
      <trkpt lat="44.77815" lon="6.7723">
        <ele>2018</ele>
        <time>2018-01-19T20:34:17Z</time>
      </trkpt>
      <trkpt lat="44.77757" lon="6.77301">
        <ele>2028</ele>
        <time>2018-01-19T20:35:17Z</time>
      </trkpt>
      <trkpt lat="44.7785" lon="6.77278">
        <ele>2049</ele>
        <time>2018-01-19T20:36:17Z</time>
      </trkpt>
      <trkpt lat="44.77697" lon="6.77508">
        <ele>2094</ele>
        <time>2018-01-19T20:37:17Z</time>
      </trkpt>
      <trkpt lat="44.77763" lon="6.77802">
        <ele>2135</ele>
        <time>2018-01-19T20:38:17Z</time>
      </trkpt>
      <trkpt lat="44.78802" lon="6.78404">
        <ele>2257</ele>
        <time>2018-01-19T20:39:17Z</time>
      </trkpt>
      <trkpt lat="44.7895" lon="6.7862">
        <ele>2275</ele>
        <time>2018-01-19T20:40:17Z</time>
      </trkpt>
      <trkpt lat="44.80094" lon="6.79459">
        <ele>2339</ele>
        <time>2018-01-19T20:41:17Z</time>
      </trkpt>
      <trkpt lat="44.80114" lon="6.79591">
        <ele>2328</ele>
        <time>2018-01-19T20:42:17Z</time>
      </trkpt>
      <trkpt lat="44.80187" lon="6.7956">
        <ele>2354</ele>
        <time>2018-01-19T20:43:17Z</time>
      </trkpt>
      <trkpt lat="44.80225" lon="6.79721">
        <ele>2378</ele>
        <time>2018-01-19T20:44:17Z</time>
      </trkpt>
      <trkpt lat="44.80482" lon="6.79749">
        <ele>2459</ele>
        <time>2018-01-19T20:45:17Z</time>
      </trkpt>
      <trkpt lat="44.80913" lon="6.80027">
        <ele>2549</ele>
        <time>2018-01-19T20:46:17Z</time>
      </trkpt>
      <trkpt lat="44.81276" lon="6.80149">
        <ele>2595</ele>
        <time>2018-01-19T20:47:17Z</time>
      </trkpt>
      <trkpt lat="44.81524" lon="6.80412">
        <ele>2631</ele>
        <time>2018-01-19T20:48:17Z</time>
      </trkpt>
      <trkpt lat="44.81789" lon="6.80438">
        <ele>2584</ele>
        <time>2018-01-19T20:49:17Z</time>
      </trkpt>
      <trkpt lat="44.81917" lon="6.80346">
        <ele>2548</ele>
        <time>2018-01-19T20:50:17Z</time>
      </trkpt>
      <trkpt lat="44.82098" lon="6.80565">
        <ele>2505</ele>
        <time>2018-01-19T20:51:17Z</time>
      </trkpt>
      <trkpt lat="44.82562" lon="6.80662">
        <ele>2408</ele>
        <time>2018-01-19T20:52:17Z</time>
      </trkpt>
      <trkpt lat="44.82873" lon="6.81009">
        <ele>2254</ele>
        <time>2018-01-19T20:53:17Z</time>
      </trkpt>
      <trkpt lat="44.83191" lon="6.81145">
        <ele>2190</ele>
        <time>2018-01-19T20:54:17Z</time>
      </trkpt>
      <trkpt lat="44.8383" lon="6.81694">
        <ele>2137</ele>
        <time>2018-01-19T20:55:17Z</time>
      </trkpt>
      <trkpt lat="44.8412" lon="6.81771">
        <ele>2092</ele>
        <time>2018-01-19T20:56:17Z</time>
      </trkpt>
      <trkpt lat="44.84386" lon="6.817">
        <ele>2055</ele>
        <time>2018-01-19T20:57:17Z</time>
      </trkpt>
      <trkpt lat="44.84464" lon="6.81603">
        <ele>2050</ele>
        <time>2018-01-19T20:58:17Z</time>
      </trkpt>
      <trkpt lat="44.85477" lon="6.7997">
        <ele>1965</ele>
        <time>2018-01-19T20:59:17Z</time>
      </trkpt>
      <trkpt lat="44.86439" lon="6.79">
        <ele>1928</ele>
        <time>2018-01-19T21:00:17Z</time>
      </trkpt>
      <trkpt lat="44.86972" lon="6.78378">
        <ele>1919</ele>
        <time>2018-01-19T21:01:17Z</time>
      </trkpt>
      <trkpt lat="44.87166" lon="6.78031">
        <ele>1886</ele>
        <time>2018-01-19T21:02:17Z</time>
      </trkpt>
      <trkpt lat="44.87585" lon="6.77667">
        <ele>1885</ele>
        <time>2018-01-19T21:03:17Z</time>
      </trkpt>
      <trkpt lat="44.87499" lon="6.7728">
        <ele>1879</ele>
        <time>2018-01-19T21:04:17Z</time>
      </trkpt>
      <trkpt lat="44.87692" lon="6.76879">
        <ele>1887</ele>
        <time>2018-01-19T21:05:17Z</time>
      </trkpt>
      <trkpt lat="44.87701" lon="6.76525">
        <ele>1873</ele>
        <time>2018-01-19T21:06:17Z</time>
      </trkpt>
      <trkpt lat="44.87853" lon="6.76422">
        <ele>1880</ele>
        <time>2018-01-19T21:07:17Z</time>
      </trkpt>
      <trkpt lat="44.87897" lon="6.76147">
        <ele>1877</ele>
        <time>2018-01-19T21:08:17Z</time>
      </trkpt>
      <trkpt lat="44.87853" lon="6.75982">
        <ele>1869</ele>
        <time>2018-01-19T21:09:17Z</time>
      </trkpt>
      <trkpt lat="44.87902" lon="6.75778">
        <ele>1872</ele>
        <time>2018-01-19T21:10:17Z</time>
      </trkpt>
      <trkpt lat="44.87873" lon="6.75577">
        <ele>1870</ele>
        <time>2018-01-19T21:11:17Z</time>
      </trkpt>
      <trkpt lat="44.8774" lon="6.75315">
        <ele>1862</ele>
        <time>2018-01-19T21:12:17Z</time>
      </trkpt>
      <trkpt lat="44.87826" lon="6.75272">
        <ele>1874</ele>
        <time>2018-01-19T21:13:17Z</time>
      </trkpt>
      <trkpt lat="44.87867" lon="6.74935">
        <ele>1877</ele>
        <time>2018-01-19T21:14:17Z</time>
      </trkpt>
      <trkpt lat="44.87914" lon="6.74845">
        <ele>1885</ele>
        <time>2018-01-19T21:15:17Z</time>
      </trkpt>
      <trkpt lat="44.87813" lon="6.74622">
        <ele>1886</ele>
        <time>2018-01-19T21:16:17Z</time>
      </trkpt>
      <trkpt lat="44.87836" lon="6.74311">
        <ele>1887</ele>
        <time>2018-01-19T21:17:17Z</time>
      </trkpt>
      <trkpt lat="44.87804" lon="6.74201">
        <ele>1876</ele>
        <time>2018-01-19T21:18:17Z</time>
      </trkpt>
      <trkpt lat="44.8769" lon="6.74141">
        <ele>1853</ele>
        <time>2018-01-19T21:19:17Z</time>
      </trkpt>
      <trkpt lat="44.87687" lon="6.7421">
        <ele>1849</ele>
        <time>2018-01-19T21:20:17Z</time>
      </trkpt>
      <trkpt lat="44.87629" lon="6.74188">
        <ele>1841</ele>
        <time>2018-01-19T21:21:17Z</time>
      </trkpt>
      <trkpt lat="44.87626" lon="6.74006">
        <ele>1828</ele>
        <time>2018-01-19T21:22:17Z</time>
      </trkpt>
      <trkpt lat="44.87585" lon="6.73933">
        <ele>1813</ele>
        <time>2018-01-19T21:23:17Z</time>
      </trkpt>
      <trkpt lat="44.8757" lon="6.74025">
        <ele>1813</ele>
        <time>2018-01-19T21:24:17Z</time>
      </trkpt>
      <trkpt lat="44.87363" lon="6.73957">
        <ele>1780</ele>
        <time>2018-01-19T21:25:17Z</time>
      </trkpt>
      <trkpt lat="44.87318" lon="6.73508">
        <ele>1743</ele>
        <time>2018-01-19T21:26:17Z</time>
      </trkpt>
      <trkpt lat="44.87374" lon="6.73579">
        <ele>1739</ele>
        <time>2018-01-19T21:27:17Z</time>
      </trkpt>
      <trkpt lat="44.87365" lon="6.73495">
        <ele>1728</ele>
        <time>2018-01-19T21:28:17Z</time>
      </trkpt>
      <trkpt lat="44.87401" lon="6.7347">
        <ele>1717</ele>
        <time>2018-01-19T21:29:17Z</time>
      </trkpt>
      <trkpt lat="44.87347" lon="6.73158">
        <ele>1688</ele>
        <time>2018-01-19T21:30:17Z</time>
      </trkpt>
      <trkpt lat="44.87146" lon="6.72766">
        <ele>1648</ele>
        <time>2018-01-19T21:31:17Z</time>
      </trkpt>
      <trkpt lat="44.87015" lon="6.72576">
        <ele>1632</ele>
        <time>2018-01-19T21:32:17Z</time>
      </trkpt>
      <trkpt lat="44.871" lon="6.72559">
        <ele>1638</ele>
        <time>2018-01-19T21:33:17Z</time>
      </trkpt>
      <trkpt lat="44.87069" lon="6.72351">
        <ele>1639</ele>
        <time>2018-01-19T21:34:17Z</time>
      </trkpt>
      <trkpt lat="44.87024" lon="6.71902">
        <ele>1643</ele>
        <time>2018-01-19T21:35:17Z</time>
      </trkpt>
      <trkpt lat="44.87122" lon="6.71891">
        <ele>1662</ele>
        <time>2018-01-19T21:36:17Z</time>
      </trkpt>
      <trkpt lat="44.87253" lon="6.71918">
        <ele>1694</ele>
        <time>2018-01-19T21:37:17Z</time>
      </trkpt>
      <trkpt lat="44.87606" lon="6.71613">
        <ele>1792</ele>
        <time>2018-01-19T21:38:17Z</time>
      </trkpt>
      <trkpt lat="44.87671" lon="6.7161">
        <ele>1815</ele>
        <time>2018-01-19T21:39:17Z</time>
      </trkpt>
      <trkpt lat="44.87636" lon="6.71492">
        <ele>1838</ele>
        <time>2018-01-19T21:40:17Z</time>
      </trkpt>
      <trkpt lat="44.87683" lon="6.71505">
        <ele>1845</ele>
        <time>2018-01-19T21:41:17Z</time>
      </trkpt>
      <trkpt lat="44.87605" lon="6.71386">
        <ele>1861</ele>
        <time>2018-01-19T21:42:17Z</time>
      </trkpt>
      <trkpt lat="44.87685" lon="6.7131">
        <ele>1892</ele>
        <time>2018-01-19T21:43:17Z</time>
      </trkpt>
      <trkpt lat="44.87935" lon="6.71335">
        <ele>1969</ele>
        <time>2018-01-19T21:44:17Z</time>
      </trkpt>
      <trkpt lat="44.8802" lon="6.71436">
        <ele>1986</ele>
        <time>2018-01-19T21:45:17Z</time>
      </trkpt>
      <trkpt lat="44.88132" lon="6.71447">
        <ele>2024</ele>
        <time>2018-01-19T21:46:17Z</time>
      </trkpt>
      <trkpt lat="44.88205" lon="6.717">
        <ele>2059</ele>
        <time>2018-01-19T21:47:17Z</time>
      </trkpt>
      <trkpt lat="44.88438" lon="6.71815">
        <ele>2132</ele>
        <time>2018-01-19T21:48:17Z</time>
      </trkpt>
      <trkpt lat="44.88545" lon="6.71929">
        <ele>2160</ele>
        <time>2018-01-19T21:49:17Z</time>
      </trkpt>
      <trkpt lat="44.88459" lon="6.71737">
        <ele>2147</ele>
        <time>2018-01-19T21:50:17Z</time>
      </trkpt>
      <trkpt lat="44.88421" lon="6.71202">
        <ele>2168</ele>
        <time>2018-01-19T21:51:17Z</time>
      </trkpt>
      <trkpt lat="44.88274" lon="6.70997">
        <ele>2159</ele>
        <time>2018-01-19T21:52:17Z</time>
      </trkpt>
      <trkpt lat="44.88271" lon="6.70704">
        <ele>2146</ele>
        <time>2018-01-19T21:53:17Z</time>
      </trkpt>
      <trkpt lat="44.88463" lon="6.70536">
        <ele>2146</ele>
        <time>2018-01-19T21:54:17Z</time>
      </trkpt>
      <trkpt lat="44.8857" lon="6.70662">
        <ele>2168</ele>
        <time>2018-01-19T21:55:17Z</time>
      </trkpt>
      <trkpt lat="44.89007" lon="6.70401">
        <ele>2138</ele>
        <time>2018-01-19T21:56:17Z</time>
      </trkpt>
      <trkpt lat="44.88798" lon="6.70002">
        <ele>2106</ele>
        <time>2018-01-19T21:57:17Z</time>
      </trkpt>
      <trkpt lat="44.88743" lon="6.69948">
        <ele>2094</ele>
        <time>2018-01-19T21:58:17Z</time>
      </trkpt>
      <trkpt lat="44.88754" lon="6.69842">
        <ele>2108</ele>
        <time>2018-01-19T21:59:17Z</time>
      </trkpt>
      <trkpt lat="44.89081" lon="6.69621">
        <ele>2169</ele>
        <time>2018-01-19T22:00:17Z</time>
      </trkpt>
      <trkpt lat="44.88915" lon="6.69833">
        <ele>2176</ele>
        <time>2018-01-19T22:01:17Z</time>
      </trkpt>
      <trkpt lat="44.89283" lon="6.70501">
        <ele>2265</ele>
        <time>2018-01-19T22:02:17Z</time>
      </trkpt>
      <trkpt lat="44.89192" lon="6.7078">
        <ele>2292</ele>
        <time>2018-01-19T22:03:17Z</time>
      </trkpt>
      <trkpt lat="44.89369" lon="6.70628">
        <ele>2314</ele>
        <time>2018-01-19T22:04:17Z</time>
      </trkpt>
      <trkpt lat="44.89429" lon="6.70316">
        <ele>2330</ele>
        <time>2018-01-19T22:05:17Z</time>
      </trkpt>
      <trkpt lat="44.89377" lon="6.69563">
        <ele>2320</ele>
        <time>2018-01-19T22:06:17Z</time>
      </trkpt>
      <trkpt lat="44.89336" lon="6.69721">
        <ele>2305</ele>
        <time>2018-01-19T22:07:17Z</time>
      </trkpt>
      <trkpt lat="44.89272" lon="6.69609">
        <ele>2266</ele>
        <time>2018-01-19T22:08:17Z</time>
      </trkpt>
      <trkpt lat="44.89459" lon="6.6909">
        <ele>2243</ele>
        <time>2018-01-19T22:09:17Z</time>
      </trkpt>
      <trkpt lat="44.89418" lon="6.68987">
        <ele>2242</ele>
        <time>2018-01-19T22:10:17Z</time>
      </trkpt>
      <trkpt lat="44.89435" lon="6.68877">
        <ele>2241</ele>
        <time>2018-01-19T22:11:17Z</time>
      </trkpt>
      <trkpt lat="44.8957" lon="6.68811">
        <ele>2224</ele>
        <time>2018-01-19T22:12:17Z</time>
      </trkpt>
      <trkpt lat="44.89576" lon="6.68865">
        <ele>2217</ele>
        <time>2018-01-19T22:13:17Z</time>
      </trkpt>
      <trkpt lat="44.89786" lon="6.68676">
        <ele>2120</ele>
        <time>2018-01-19T22:14:17Z</time>
      </trkpt>
      <trkpt lat="44.89916" lon="6.68733">
        <ele>2077</ele>
        <time>2018-01-19T22:15:17Z</time>
      </trkpt>
      <trkpt lat="44.90104" lon="6.68434">
        <ele>1987</ele>
        <time>2018-01-19T22:16:17Z</time>
      </trkpt>
      <trkpt lat="44.90089" lon="6.68249">
        <ele>1951</ele>
        <time>2018-01-19T22:17:17Z</time>
      </trkpt>
      <trkpt lat="44.90252" lon="6.68307">
        <ele>1926</ele>
        <time>2018-01-19T22:18:17Z</time>
      </trkpt>
      <trkpt lat="44.9025" lon="6.68188">
        <ele>1895</ele>
        <time>2018-01-19T22:19:17Z</time>
      </trkpt>
      <trkpt lat="44.90413" lon="6.68191">
        <ele>1845</ele>
        <time>2018-01-19T22:20:17Z</time>
      </trkpt>
      <trkpt lat="44.90357" lon="6.68122">
        <ele>1841</ele>
        <time>2018-01-19T22:21:17Z</time>
      </trkpt>
      <trkpt lat="44.90555" lon="6.67788">
        <ele>1709</ele>
        <time>2018-01-19T22:22:17Z</time>
      </trkpt>
      <trkpt lat="44.90473" lon="6.67709">
        <ele>1704</ele>
        <time>2018-01-19T22:23:17Z</time>
      </trkpt>
      <trkpt lat="44.90738" lon="6.67606">
        <ele>1646</ele>
        <time>2018-01-19T22:24:17Z</time>
      </trkpt>
      <trkpt lat="44.90632" lon="6.67512">
        <ele>1621</ele>
        <time>2018-01-19T22:25:17Z</time>
      </trkpt>
      <trkpt lat="44.90718" lon="6.67475">
        <ele>1600</ele>
        <time>2018-01-19T22:26:17Z</time>
      </trkpt>
      <trkpt lat="44.90596" lon="6.67132">
        <ele>1520</ele>
        <time>2018-01-19T22:27:17Z</time>
      </trkpt>
      <trkpt lat="44.90682" lon="6.67175">
        <ele>1512</ele>
        <time>2018-01-19T22:28:17Z</time>
      </trkpt>
      <trkpt lat="44.90703" lon="6.67017">
        <ele>1461</ele>
        <time>2018-01-19T22:29:17Z</time>
      </trkpt>
      <trkpt lat="44.90653" lon="6.66925">
        <ele>1452</ele>
        <time>2018-01-19T22:30:17Z</time>
      </trkpt>
      <trkpt lat="44.90636" lon="6.66708">
        <ele>1399</ele>
        <time>2018-01-19T22:31:17Z</time>
      </trkpt>
      <trkpt lat="44.90469" lon="6.66466">
        <ele>1366</ele>
        <time>2018-01-19T22:32:17Z</time>
      </trkpt>
      <trkpt lat="44.90323" lon="6.66444">
        <ele>1355</ele>
        <time>2018-01-19T22:33:17Z</time>
      </trkpt>
      <trkpt lat="44.90244" lon="6.66006">
        <ele>1310</ele>
        <time>2018-01-19T22:34:17Z</time>
      </trkpt>
      <trkpt lat="44.90135" lon="6.65749">
        <ele>1295</ele>
        <time>2018-01-19T22:35:17Z</time>
      </trkpt>
      <trkpt lat="44.90144" lon="6.655">
        <ele>1283</ele>
        <time>2018-01-19T22:36:17Z</time>
      </trkpt>
      <trkpt lat="44.90135" lon="6.65386">
        <ele>1281</ele>
        <time>2018-01-19T22:37:17Z</time>
      </trkpt>
      <trkpt lat="44.89972" lon="6.64961">
        <ele>1311</ele>
        <time>2018-01-19T22:38:17Z</time>
      </trkpt>
      <trkpt lat="44.89844" lon="6.64851">
        <ele>1314</ele>
        <time>2018-01-19T22:39:17Z</time>
      </trkpt>
      <trkpt lat="44.89687" lon="6.64828">
        <ele>1338</ele>
        <time>2018-01-19T22:40:17Z</time>
      </trkpt>
      <trkpt lat="44.89797" lon="6.65009">
        <ele>1372</ele>
        <time>2018-01-19T22:41:17Z</time>
      </trkpt>
      <trkpt lat="44.89607" lon="6.64893">
        <ele>1409</ele>
        <time>2018-01-19T22:42:17Z</time>
      </trkpt>
      <trkpt lat="44.89556" lon="6.6459">
        <ele>1363</ele>
        <time>2018-01-19T22:43:17Z</time>
      </trkpt>
      <trkpt lat="44.8946" lon="6.64471">
        <ele>1347</ele>
        <time>2018-01-19T22:44:17Z</time>
      </trkpt>
      <trkpt lat="44.89241" lon="6.6481">
        <ele>1378</ele>
        <time>2018-01-19T22:45:17Z</time>
      </trkpt>
      <trkpt lat="44.89271" lon="6.64974">
        <ele>1397</ele>
        <time>2018-01-19T22:46:17Z</time>
      </trkpt>
      <trkpt lat="44.89238" lon="6.65045">
        <ele>1389</ele>
        <time>2018-01-19T22:47:17Z</time>
      </trkpt>
      <trkpt lat="44.89169" lon="6.65054">
        <ele>1385</ele>
        <time>2018-01-19T22:48:17Z</time>
      </trkpt>
      <trkpt lat="44.89212" lon="6.64991">
        <ele>1383</ele>
        <time>2018-01-19T22:49:17Z</time>
      </trkpt>
      <trkpt lat="44.89144" lon="6.64944">
        <ele>1372</ele>
        <time>2018-01-19T22:50:17Z</time>
      </trkpt>
      <trkpt lat="44.89136" lon="6.64693">
        <ele>1343</ele>
        <time>2018-01-19T22:51:17Z</time>
      </trkpt>
      <trkpt lat="44.89063" lon="6.64698">
        <ele>1342</ele>
        <time>2018-01-19T22:52:17Z</time>
      </trkpt>
      <trkpt lat="44.88996" lon="6.64537">
        <ele>1330</ele>
        <time>2018-01-19T22:53:17Z</time>
      </trkpt>
      <trkpt lat="44.88811" lon="6.64363">
        <ele>1310</ele>
        <time>2018-01-19T22:54:17Z</time>
      </trkpt>
      <trkpt lat="44.88727" lon="6.64457">
        <ele>1313</ele>
        <time>2018-01-19T22:55:17Z</time>
      </trkpt>
      <trkpt lat="44.88577" lon="6.64466">
        <ele>1303</ele>
        <time>2018-01-19T22:56:17Z</time>
      </trkpt>
      <trkpt lat="44.88637" lon="6.64198">
        <ele>1277</ele>
        <time>2018-01-19T22:57:17Z</time>
      </trkpt>
      <trkpt lat="44.88612" lon="6.64107">
        <ele>1265</ele>
        <time>2018-01-19T22:58:17Z</time>
      </trkpt>
      <trkpt lat="44.88724" lon="6.63839">
        <ele>1243</ele>
        <time>2018-01-19T22:59:17Z</time>
      </trkpt>
      <trkpt lat="44.88653" lon="6.63698">
        <ele>1232</ele>
        <time>2018-01-19T23:00:17Z</time>
      </trkpt>
      <trkpt lat="44.88561" lon="6.63528">
        <ele>1219</ele>
        <time>2018-01-19T23:01:17Z</time>
      </trkpt>
      <trkpt lat="44.88583" lon="6.63424">
        <ele>1214</ele>
        <time>2018-01-19T23:02:17Z</time>
      </trkpt>
      <trkpt lat="44.88489" lon="6.63341">
        <ele>1215</ele>
        <time>2018-01-19T23:03:17Z</time>
      </trkpt>
      <trkpt lat="44.88471" lon="6.63294">
        <ele>1215</ele>
        <time>2018-01-19T23:04:17Z</time>
      </trkpt>
      <trkpt lat="44.88283" lon="6.63295">
        <ele>1222</ele>
        <time>2018-01-19T23:05:17Z</time>
      </trkpt>
      <trkpt lat="44.88153" lon="6.63313">
        <ele>1235</ele>
        <time>2018-01-19T23:06:17Z</time>
      </trkpt>
      <trkpt lat="44.8788" lon="6.63285">
        <ele>1242</ele>
        <time>2018-01-19T23:07:17Z</time>
      </trkpt>
      <trkpt lat="44.87596" lon="6.6318">
        <ele>1249</ele>
        <time>2018-01-19T23:08:17Z</time>
      </trkpt>
      <trkpt lat="44.87462" lon="6.63045">
        <ele>1248</ele>
        <time>2018-01-19T23:09:17Z</time>
      </trkpt>
      <trkpt lat="44.87325" lon="6.628">
        <ele>1246</ele>
        <time>2018-01-19T23:10:17Z</time>
      </trkpt>
      <trkpt lat="44.8718" lon="6.63083">
        <ele>1285</ele>
        <time>2018-01-19T23:11:17Z</time>
      </trkpt>
      <trkpt lat="44.87141" lon="6.6295">
        <ele>1279</ele>
        <time>2018-01-19T23:12:17Z</time>
      </trkpt>
    </trkseg>
  </trk>
</gpx>